KSDM/SDM METAR and TAF weather

Enter ICAO airport designator
Station Type Date Time Source
KSDM METAR 2020/09/22 01:53 UTC NOAA

KSDM 220153Z 28005KT 10SM CLR 20/16 A2993 RMK AO2 SLP129 T02000161


Station Type Date Time Source
KSDM Decoded METAR 2020/09/22 01:53 UTC NOAA

San Diego, Brown Field Municipal Airport, CA, United States (KSDM) 32-34-31N 116-59-35W 159M
Sep 21, 2020 - 09:53 PM EDT / 2020.09.22 0153 UTC
Wind: from the W (280 degrees) at 6 MPH (5 KT):0
Visibility: 10 mile(s):0
Sky conditions: clear
Temperature: 68.0 F (20.0 C)
Dew Point: 61.0 F (16.1 C)
Relative Humidity: 78%
Pressure (altimeter): 29.93 in. Hg (1013 hPa)
ob: KSDM 220153Z 28005KT 10SM CLR 20/16 A2993 RMK AO2 SLP129 T02000161
cycle: 2

Station Type Date Time Source
KSDM TAF UTC NOAA

Error!

Example: see airport list